Ukkel, Belgium

4:43 PM CET op 09 februari 2016 (GMT +0100)
Brussels National | | Change Station
CLOSE
Current Station
Luchthaven
Location: Brussels,
Geometrische hoogte: 190 ft
Nabije weerstations

Hoogte 190 ft 50.90 °N, 4.53 °E | Updated 23 minutes ago

Light Rain
Lichte regen
36 °F
Voelt als 26 °F
N
16
Wind Variabel Wind van WNW

Vandaag
Hoog -- | Laag -- °F
--% Kans op neerslag
Gisteren
Hoog -- | Laag -- °F
Precip. -- inches
Druk 29.00 inches
Zicht 3.7 mijlen
Wolken Gering 500 ft
Merendeels bewolkt 600 ft
Gevoelstemperatuur 26 °F
Dauwpunt 34 °F
Vochtigheid 93%
Neerslag 0.00 inches
Dikte sneeuw Niet beschikbaar.
8:06 AM 5:47 PM
Nieuwe maan, 1% visible
METAR EBBR 091520Z 30014KT 6000 -RASN FEW005 BKN006 02/01 Q0982 TEMPO 3500 RASN BKN005
Druk 29.00 inches
Zicht 3.7 mijlen
Wolken Gering 500 ft
Merendeels bewolkt 600 ft
Gevoelstemperatuur 26 °F
Dauwpunt 34 °F
Vochtigheid 93%
Neerslag 0.00 inches
Dikte sneeuw Niet beschikbaar.
8:06 AM 5:47 PM
Nieuwe maan, 1% visible
METAR EBBR 091520Z 30014KT 6000 -RASN FEW005 BKN006 02/01 Q0982 TEMPO 3500 RASN BKN005

10-Day Weather Forecast

Almanac

Astronomie

Feb. 09, 2016 Opkomst Ondergang
Werkelijke tijd
Burgerlijke schemering
Nautische schemering
Astronomische schemering
Maan
Golflengte van het zichtbare licht
Daglengte
Tomorrow will be .
, % of the Moon is Illuminated

Extremen vandaag

Country Highs Country Lows

Community

WunderPhotos

Upload Photos

1,891,628 foto’s ge-upload!

WunderBlog® & News

Nearby

Luchtkwaliteit

  Luchtkwaliteit LK-index Verontreinigende stof
Not available.

Dikte sneeuw

Station Depth Geometrische hoogte

Aardbevingen

Stad Distance Mag. Time & Date
Minimum magnitude displayed is 2.5.

Watertemperatuur langs de kust

Plaats Temperatuur

Stations

Nabije weerstations

Locatie station Temp. Gevoelstemperatuur Dauwpunt Vochtigheid Wind Precip. Hoogte Geactualiseerd Type